Time;durP1;ratioP1;P1;durP2;ratioP2;P2;SDS_P1;SDS_P2;PMS_P1;PMS_P2;Temp;Humidity;BMP_temperature;BMP_pressure;BME280_temperature;BME280_humidity;BME280_pressure;Samples;Min_cycle;Max_cycle;Signal;HPM_P1;HPM_P2
2022/04/29 00:01:42;;;;;;;12.88;8.93;;;;;;;11.56;83.15;98196.09;10294950;28;20030;-61
2022/04/29 00:06:42;;;;;;;12.93;8.98;;;;;;;10.83;83.34;98083.31;10294060;28;20502;-61
2022/04/29 00:11:41;;;;;;;14.65;9.98;;;;;;;11.58;82.98;98189.19;10293607;28;20084;-61
2022/04/29 00:16:40;;;;;;;14.85;10.15;;;;;;;11.65;83.58;98193.53;10294733;28;20037;-61
2022/04/29 00:21:41;;;;;;;15.35;10.20;;;;;;;11.68;83.92;98190.91;10293960;28;20117;-61
2022/04/29 00:26:40;;;;;;;17.58;9.98;;;;;;;11.57;83.92;98171.84;10293292;28;20531;-61
2022/04/29 00:31:39;;;;;;;15.18;10.40;;;;;;;11.65;83.70;98190.91;10293642;28;20069;-61
2022/04/29 00:36:38;;;;;;;13.38;9.50;;;;;;;11.43;83.45;98146.72;10292942;28;20080;-61
2022/04/29 00:41:38;;;;;;;16.38;9.52;;;;;;;11.67;83.74;98174.47;10292978;28;20069;-61
2022/04/29 00:46:43;;;;;;;13.02;8.73;;;;;;;11.70;83.39;98172.72;10292836;28;20477;-61
2022/04/29 00:51:44;;;;;;;14.43;9.45;;;;;;;11.75;83.77;98177.06;10292324;28;20089;-61
2022/04/29 00:56:43;;;;;;;14.68;9.60;;;;;;;11.77;83.39;98175.31;10291275;28;20131;-61
2022/04/29 01:01:46;;;;;;;16.13;11.45;;;;;;;11.78;83.59;98168.38;10292312;28;20026;-61
2022/04/29 01:06:45;;;;;;;17.10;11.18;;;;;;;11.78;83.25;98173.59;10292000;28;20073;-61
2022/04/29 01:11:45;;;;;;;14.68;9.90;;;;;;;11.21;82.88;98085.16;10291814;28;20036;-61
2022/04/29 01:16:44;;;;;;;13.43;8.88;;;;;;;11.04;84.15;98104.19;10291798;28;20073;-61
2022/04/29 01:21:43;;;;;;;20.55;10.15;;;;;;;11.10;84.42;98149.19;10291984;28;20033;-61
2022/04/29 01:26:42;;;;;;;;;;;;;;;10.94;85.48;98171.63;10291231;28;20077;-61
2022/04/29 01:31:41;;;;;;;;;;;;;;;10.83;86.38;98168.97;10292321;28;19976;-61
2022/04/29 01:36:40;;;;;;;;;;;;;;;10.92;85.83;98160.41;10290122;28;19961;-61
2022/04/29 01:41:39;;;;;;;;;;;;;;;10.98;86.58;98173.41;10291784;28;19909;-61
2022/04/29 01:46:37;;;;;;;;;;;;;;;11.01;87.09;98168.22;10291386;28;19932;-61
2022/04/29 01:51:36;;;;;;;;;;;;;;;10.94;87.33;98163.84;10291133;28;20032;-61
2022/04/29 01:56:35;;;;;;;;;;;;;;;11.00;87.37;98164.75;10291053;28;19948;-61
2022/04/29 02:01:34;;;;;;;;;;;;;;;11.13;86.96;98164.81;10291208;28;19920;-62
2022/04/29 02:06:34;;;;;;;;;;;;;;;11.23;86.75;98166.56;10290820;28;20009;-62
2022/04/29 02:11:34;;;;;;;;;;;;;;;11.31;86.30;98170.03;10290826;28;19965;-61
2022/04/29 02:16:33;;;;;;;;;;;;;;;11.30;86.38;98165.72;10290859;28;19948;-61
2022/04/29 02:21:31;;;;;;;;;;;;;;;11.35;86.02;98166.59;10290771;28;19963;-61
2022/04/29 02:26:30;;;;;;;;;;;;;;;11.41;86.51;98170.97;10291047;28;19917;-61
2022/04/29 02:31:29;;;;;;;;;;;;;;;11.42;86.40;98168.34;10290861;28;19949;-61
2022/04/29 02:36:28;;;;;;;;;;;;;;;11.44;86.48;98168.34;10290884;28;19945;-61
2022/04/29 02:41:26;;;;;;;;;;;;;;;11.44;86.76;98164.00;10295739;28;19986;-61
2022/04/29 02:46:25;;;;;;;;;;;;;;;11.49;86.46;98169.22;10297761;28;19920;-61
2022/04/29 02:51:24;;;;;;;;;;;;;;;11.51;86.16;98172.69;10297828;28;20375;-61
2022/04/29 02:56:23;;;;;;;;;;;;;;;11.55;85.71;98163.16;10297508;28;20432;-61
2022/04/29 03:01:21;;;;;;;;;;;;;;;11.55;85.39;98170.97;10297884;28;20724;-61
2022/04/29 03:06:20;;;;;;;;;;;;;;;11.42;84.71;98170.94;10297285;28;19915;-61
2022/04/29 03:11:19;;;;;;;;;;;;;;;11.40;84.64;98175.25;10296900;28;19996;-61
2022/04/29 03:16:18;;;;;;;;;;;;;;;11.39;84.39;98177.88;10296915;28;19917;-61
2022/04/29 03:21:18;;;;;;;;;;;;;;;11.28;85.68;98183.03;10296790;28;19913;-61
2022/04/29 03:26:17;;;;;;;;;;;;;;;11.13;85.56;98196.84;10296257;28;20383;-61
2022/04/29 03:31:16;;;;;;;;;;;;;;;10.98;86.26;98202.81;10296185;28;19921;-61
2022/04/29 03:36:15;;;;;;;;;;;;;;;10.68;87.03;98202.63;10296614;28;19909;-61
2022/04/29 03:41:13;;;;;;;;;;;;;;;10.59;87.95;98204.34;10295763;28;19960;-61
2022/04/29 03:46:12;;;;;;;;;;;;;;;10.40;88.65;98203.34;10295229;28;19909;-61
2022/04/29 03:51:12;;;;;;;;;;;;;;;10.52;88.09;98207.75;10295076;28;19924;-61
2022/04/29 03:56:10;;;;;;;;;;;;;;;10.66;87.85;98207.84;10295246;28;20380;-61
2022/04/29 04:01:10;;;;;;;;;;;;;;;10.62;89.23;98206.06;10295483;28;20394;-61
2022/04/29 04:11:27;;;;;;;;;;;;;;;10.79;88.83;98211.34;10294436;28;19967;-61
2022/04/29 04:16:26;;;;;;;;;;;;;;;11.00;88.91;98216.69;10294471;28;19967;-61
2022/04/29 04:21:26;;;;;;;;;;;;;;;11.15;88.20;98218.50;10294180;28;19948;-61
2022/04/29 04:26:24;;;;;;;;;;;;;;;11.30;88.25;98217.69;10293203;28;19956;-61
2022/04/29 04:31:24;;;;;;;;;;;;;;;11.49;87.79;98225.53;10292859;28;19914;-61
2022/04/29 04:36:23;;;;;;;;;;;;;;;11.66;87.42;98224.69;10293833;28;20424;-61
2022/04/29 04:41:21;;;;;;;;;;;;;;;11.83;86.89;98216.94;10292983;28;20406;-62
2022/04/29 04:46:20;;;;;;;;;;;;;;;11.98;86.54;98212.63;10291044;28;19996;-61
2022/04/29 04:51:19;;;;;;;;;;;;;;;12.13;85.73;98215.22;10290190;28;19917;-61
2022/04/29 04:56:17;;;;;;;;;;;;;;;12.25;84.71;98225.66;10290807;28;19915;-61
2022/04/29 05:01:16;;;;;;;;;;;;;;;12.35;84.32;98220.47;10288468;28;19953;-61
2022/04/29 05:06:15;;;;;;;;;;;;;;;12.55;83.09;98221.31;10290970;28;20007;-61
2022/04/29 05:11:14;;;;;;;;;;;;;;;12.74;81.76;98214.31;10290918;28;19917;-61
2022/04/29 05:16:12;;;;;;;;;;;;;;;12.88;80.51;98223.00;10288824;28;20016;-61
2022/04/29 05:21:11;;;;;;;;;;;;;;;12.81;79.64;98220.38;10289367;28;20012;-62
2022/04/29 05:26:10;;;;;;;;;;;;;;;12.53;80.58;98215.22;10276385;28;20514;-62
2022/04/29 05:31:09;;;;;;;;;;;;;;;12.52;80.73;98219.56;10286814;28;19921;-62
2022/04/29 05:36:09;;;;;;;;;;;;;;;12.49;81.16;98221.31;10288429;28;19948;-62
2022/04/29 05:46:25;;;;;;;;;;;;;;;12.27;82.06;98223.94;10286389;28;19954;-62
2022/04/29 05:51:23;;;;;;;;;;;;;;;12.45;81.08;98222.19;10284458;28;19917;-62
2022/04/29 05:56:22;;;;;;;;;;;;;;;12.51;79.79;98217.00;10283611;28;19917;-62
2022/04/29 06:01:21;;;;;;;;;;;;;;;12.59;79.21;98225.63;10277089;28;20280;-62
2022/04/29 06:06:20;;;;;;;;;;;;;;;12.55;77.81;98229.09;10276308;28;20268;-62
2022/04/29 06:11:19;;;;;;;;;;;;;;;12.78;76.87;98233.41;10278544;28;19917;-62
2022/04/29 06:16:17;;;;;;;;;;;;;;;12.91;73.69;98236.00;10288200;28;19917;-62
2022/04/29 06:21:18;;;;;;;;;;;;;;;13.24;71.65;98233.28;10287693;28;19957;-62
2022/04/29 06:26:16;;;;;;;;;;;;;;;13.64;70.64;98235.75;10289767;28;20036;-62
2022/04/29 06:31:15;;;;;;;;;;;;;;;13.86;67.76;98232.09;10289390;28;19922;-62
2022/04/29 06:36:14;;;;;;;;;;;;;;;13.93;67.78;98238.16;10288577;28;19925;-61
2022/04/29 06:41:13;;;;;;;;;;;;;;;14.04;66.69;98245.91;10287165;28;19911;-61
2022/04/29 06:46:12;;;;;;;;;;;;;;;14.28;66.70;98240.50;10289724;28;19960;-61
2022/04/29 06:51:11;;;;;;;;;;;;;;;14.58;65.30;98239.38;10288290;28;19989;-62
2022/04/29 06:56:10;;;;;;;;;;;;;;;14.75;64.13;98239.22;10287542;28;20008;-62
2022/04/29 07:01:09;;;;;;;;;;;;;;;15.31;63.15;98246.47;10289729;28;19948;-62
2022/04/29 07:06:07;;;;;;;;;;;;;;;15.76;62.25;98245.00;10291786;28;19913;-62
2022/04/29 07:11:06;;;;;;;;;;;;;;;16.27;61.20;98242.53;10291046;28;19913;-62
2022/04/29 07:16:05;;;;;;;;;;;;;;;16.24;55.42;98231.25;10290629;28;19921;-62
2022/04/29 07:21:04;;;;;;;;;;;;;;;16.26;56.16;98240.81;10290346;28;19948;-62
2022/04/29 07:26:03;;;;;;;;;;;;;;;16.18;53.82;98234.81;10290739;28;19909;-62
2022/04/29 07:31:02;;;;;;;;;;;;;;;15.94;53.38;98238.69;10291080;28;20434;-62
2022/04/29 07:46:36;;;;;;;;;;;;;;;15.92;53.46;98242.22;10285494;28;19963;-62
2022/04/29 07:51:35;;;;;;;;;;;;;;;15.95;53.88;98235.19;10287449;28;19973;-62
2022/04/29 07:56:34;;;;;;;;;;;;;;;15.98;53.26;98240.38;10289700;28;19913;-62
2022/04/29 08:01:37;;;;;;;;;;;;;;;15.99;53.66;98242.09;10289730;28;19914;-62
2022/04/29 08:06:35;;;;;;;;;;;;;;;16.49;52.55;98244.81;10288551;28;20746;-62
2022/04/29 08:11:34;;;;;;;;;;;;;;;16.45;51.34;98244.00;10288721;28;20386;-62
2022/04/29 08:16:33;;;;;;;;;;;;;;;16.60;51.74;98249.84;10290089;28;19924;-62
2022/04/29 08:21:32;;;;;;;;;;;;;;;16.64;51.67;98241.06;10290324;28;19918;-62
2022/04/29 08:26:30;;;;;;;;;;;;;;;16.38;51.86;98237.13;10290403;28;19959;-62
2022/04/29 08:31:29;;;;;;;;;;;;;;;16.01;52.50;98244.69;10290648;28;19956;-63
2022/04/29 08:36:30;;;;;;;;;;;;;;;15.55;54.29;98245.28;10290307;28;19940;-64
2022/04/29 08:41:30;;;;;;;;;;;;;;;15.56;54.87;98247.91;10290535;28;19959;-62
2022/04/29 08:46:29;;;;;;;;;;;;;;;15.56;55.05;98234.81;10290601;28;20724;-62
2022/04/29 08:51:29;;;;;;;;;;;;;;;14.86;57.71;98243.50;10289241;28;19963;-63
2022/04/29 09:01:45;;;;;;;;;;;;;;;14.11;61.11;98226.72;10290557;28;19960;-63
2022/04/29 09:06:48;;;;;;;;;;;;;;;13.73;62.57;98246.13;10288991;28;20004;-64
2022/04/29 09:11:47;;;;;;;;;;;;;;;13.63;61.87;98223.56;10288898;28;20402;-63
2022/04/29 09:16:45;;;;;;;;;;;;;;;13.39;62.94;98230.59;10289088;28;19956;-63
2022/04/29 09:21:44;;;;;;;;;;;;;;;13.61;62.00;98238.34;10284698;28;19920;-63
2022/04/29 09:26:43;;;;;;;;;;;;;;;14.06;61.63;98223.28;10284998;28;20774;-63
2022/04/29 09:31:48;;;;;;;;;;;;;;;14.15;60.56;98221.47;10288694;28;20377;-63
2022/04/29 09:36:47;;;;;;;;;;;;;;;14.34;59.62;98219.56;10286207;28;20807;-63
2022/04/29 09:42:04;;;;;;;;;;;;;;;14.96;58.42;98226.84;10288979;28;20450;-63
2022/04/29 09:47:13;;;;;;;;;;;;;;;15.38;56.89;98216.75;10289066;28;19953;-63
2022/04/29 09:52:17;;;;;;;;;;;;;;;15.73;54.46;98228.50;10283813;28;20012;-63
2022/04/29 09:57:23;;;;;;;;;;;;;;;15.97;53.59;98222.91;10284052;28;19968;-62
2022/04/29 10:02:23;;;;;;;;;;;;;;;16.65;53.82;98227.94;10286264;28;19952;-63
2022/04/29 10:07:23;;;;;;;;;;;;;;;17.11;50.33;98220.97;10288165;28;20387;-63
2022/04/29 10:12:23;;;;;;;;;;;;;;;17.36;50.91;98205.63;10285029;28;19988;-63
2022/04/29 10:22:42;;;;;;;;;;;;;;;17.20;51.53;98209.44;10285815;28;19964;-63
2022/04/29 10:27:41;;;;;;;;;;;;;;;16.97;51.18;98209.91;10287230;28;19959;-63
2022/04/29 10:32:58;;;;;;;;;;;;;;;17.16;51.20;98207.78;10287024;28;20036;-63
2022/04/29 10:38:11;;;;;;;;;;;;;;;17.23;50.85;98207.63;10284394;28;19964;-64
2022/04/29 10:43:11;;;;;;;;;;;;;;;17.47;50.74;98202.75;10282819;28;19949;-62
2022/04/29 10:48:28;;;;;;;;;;;;;;;17.69;50.64;98204.00;10285945;28;19940;-62
2022/04/29 10:53:35;;;;;;;;;;;;;;;17.82;50.07;98186.22;10284380;28;19976;-63
2022/04/29 10:58:44;;;;;;;;;;;;;;;18.29;48.18;98180.72;10284748;28;20033;-63
2022/04/29 11:03:46;;;;;;;;;;;;;;;18.83;47.76;98180.25;10291469;28;19971;-63
2022/04/29 11:08:46;;;;;;;;;;;;;;;18.99;46.71;98171.03;10292690;28;20362;-63
2022/04/29 11:13:47;;;;;;;;;;;;;;;19.10;45.07;98167.22;10292958;28;19960;-63
2022/04/29 11:19:06;;;;;;;;;;;;;;;19.15;44.65;98166.16;10291902;28;20000;-62
2022/04/29 11:29:22;;;;;;;;;;;;;;;18.63;45.88;98162.34;10291801;28;20442;-63
2022/04/29 11:34:21;;;;;;;;;;;;;;;18.60;45.97;98158.03;10291806;28;20617;-63
2022/04/29 11:39:20;;;;;;;;;;;;;;;18.98;46.30;98152.66;10290952;28;19955;-63
2022/04/29 11:44:22;;;;;;;;;;;;;;;19.00;44.53;98146.44;10293620;28;19917;-63
2022/04/29 11:49:32;;;;;;;;;;;;;;;18.64;45.45;98143.00;10291096;28;20004;-63
2022/04/29 11:54:31;;;;;;;;;;;;;;;18.23;44.77;98136.25;10289678;28;19960;-63
2022/04/29 11:59:29;;;;;;;;;;;;;;;18.07;46.41;98141.88;10292867;28;19945;-63
2022/04/29 12:04:28;;;;;;;;;;;;;;;17.30;47.02;98130.53;10291693;28;19920;-63
2022/04/29 12:09:34;;;;;;;;;;;;;;;16.79;48.90;98135.94;10291833;28;20000;-62
2022/04/29 12:14:32;;;;;;;;;;;;;;;16.87;48.93;98126.19;10291166;28;20538;-62
2022/04/29 12:19:31;;;;;;;;;;;;;;;16.65;50.10;98125.75;10290506;28;20363;-63
2022/04/29 12:24:42;;;;;;;;;;;;;;;16.88;49.87;98122.66;10292802;28;20411;-63
2022/04/29 12:34:47;;;;;;;;;;;;;;;16.65;49.71;98127.47;10291308;28;19948;-63
2022/04/29 12:35:10;;;;;;;;;;;;;;;16.76;49.22;98115.03;10291053;28;19948;-62
2022/04/29 12:40:09;;;;;;;;;;;;;;;17.09;49.18;98123.13;10292892;28;19971;-61
2022/04/29 12:45:10;;;;;;;;;;;;;;;17.08;49.81;98111.78;10292578;28;19959;-61
2022/04/29 12:50:15;;;;;;;;;;;;;;;16.84;50.09;98107.03;10289383;28;20418;-62
2022/04/29 12:55:14;;;;;;;;;;;;;;;16.76;50.78;98109.78;10288764;28;19967;-62
2022/04/29 13:00:23;;;;;;;;;;;;;;;16.58;50.44;98110.16;10290673;28;19956;-61
2022/04/29 13:05:22;;;;;;;;;;;;;;;16.36;50.81;98107.94;10290202;28;19948;-61
2022/04/29 13:10:21;;;;;;;;;;;;;;;16.27;50.09;98098.50;10288203;28;19921;-61
2022/04/29 13:15:20;;;;;;;;;;;;;;;16.22;51.14;98097.72;10289576;28;19948;-62
2022/04/29 13:20:19;;;;;;;;;;;;;;;16.20;51.47;98078.53;10290278;28;20385;-62
2022/04/29 13:25:18;;;;;;;;;;;;;;;16.22;51.75;98082.00;10288064;28;20020;-62
2022/04/29 13:30:16;;;;;;;;;;;;;;;16.27;51.46;98079.31;10304635;28;19925;-62
2022/04/29 13:35:16;;;;;;;;;;;;;;;16.14;51.83;98083.03;10291104;28;19992;-62
2022/04/29 13:40:15;;;;;;;;;;;;;;;15.94;52.74;98079.03;10290412;28;19964;-62
2022/04/29 13:45:14;;;;;;;;;;;;;;;16.04;52.96;98078.00;10290562;28;19909;-61
2022/04/29 13:50:12;;;;;;;;;;;;;;;16.13;52.58;98071.69;10291113;28;19923;-62
2022/04/29 13:55:11;;;;;;;;;;;;;;;16.19;52.25;98078.59;10288179;28;19909;-62
2022/04/29 14:00:13;;;;;;;;;;;;;;;16.15;52.80;98079.53;10291087;28;20019;-62
2022/04/29 14:05:12;;;;;;;;;;;;;;;16.07;53.13;98067.44;10290441;28;20323;-62
2022/04/29 14:10:11;;;;;;;;;;;;;;;15.93;52.41;98065.94;10288964;28;20241;-62
2022/04/29 14:15:10;;;;;;;;;;;;;;;15.83;52.91;98074.00;10289606;28;19961;-61
2022/04/29 14:20:09;;;;;;;;;;;;;;;15.62;53.14;98069.94;10290068;28;19913;-61
2022/04/29 14:25:08;;;;;;;;;;;;;;;15.77;53.68;98078.41;10289116;28;19996;-61
2022/04/29 14:30:08;;;;;;;;;;;;;;;15.84;54.31;98070.47;10289839;28;19956;-62
2022/04/29 14:35:08;;;;;;;;;;;;;;;15.91;54.38;98070.38;10294331;28;19952;-61
2022/04/29 14:40:08;;;;;;;;;;;;;;;16.02;54.18;98071.91;10296345;28;19961;-61
2022/04/29 14:45:08;;;;;;;;;;;;;;;15.77;54.78;98071.44;10297628;28;19956;-61
2022/04/29 14:50:08;;;;;;;;;;;;;;;15.74;55.21;98076.72;10298068;28;20398;-62
2022/04/29 14:55:07;;;;;;;;;;;;;;;15.57;55.41;98074.34;10297115;28;20393;-62
2022/04/29 15:00:06;;;;;;;;;;;;;;;15.63;55.58;98073.41;10296794;28;20038;-62
2022/04/29 15:05:05;;;;;;;;;;;;;;;15.67;55.04;98077.72;10297378;28;19953;-62
2022/04/29 15:15:50;;;;;;;;;;;;;;;15.36;55.34;98080.78;10296925;28;19960;-62
2022/04/29 15:20:49;;;;;;;;;;;;;;;15.36;55.74;98085.16;10296184;28;20485;-62
2022/04/29 15:25:48;;;;;;;;;;;;;;;15.34;55.59;98076.47;10296306;28;20426;-62
2022/04/29 15:30:47;;;;;;;;;;;;;;;15.27;55.73;98075.69;10295746;28;19956;-62
2022/04/29 15:35:47;;;;;;;;;;;;;;;15.16;55.43;98070.63;10295433;28;20450;-62
2022/04/29 15:40:46;;;;;;;;;;;;;;;15.12;55.88;98062.84;10295507;28;19959;-62
2022/04/29 15:45:48;;;;;;;;;;;;;;;15.07;56.16;98062.91;10255601;28;19924;-62
2022/04/29 15:50:48;;;;;;;;;;;;;;;15.05;56.31;98062.06;10294479;28;19972;-62
2022/04/29 15:55:46;;;;;;;;;;;;;;;15.04;56.92;98057.75;10295070;28;19956;-62
2022/04/29 16:00:45;;;;;;;;;;;;;;;14.98;56.87;98065.66;10295026;28;20346;-62
2022/04/29 16:05:44;;;;;;;;;;;;;;;15.00;56.95;98054.28;10293040;28;19968;-62
2022/04/29 16:10:43;;;;;;;;;;;;;;;14.97;57.07;98058.72;10295170;28;19918;-62
2022/04/29 16:15:41;;;;;;;;;;;;;;;14.97;57.10;98063.94;10294544;28;20437;-62
2022/04/29 16:20:40;;;;;;;;;;;;;;;14.99;58.10;98056.91;10292705;28;19985;-62
2022/04/29 16:25:40;;;;;;;;;;;;;;;14.86;58.47;98071.06;10291392;28;19941;-62
2022/04/29 16:30:45;;;;;;;;;;;;;;;14.69;59.10;98066.03;10293618;28;19960;-62
2022/04/29 16:35:44;;;;;;;;;;;;;;;14.62;59.74;98071.31;10292919;28;19945;-62
2022/04/29 16:40:43;;;;;;;;;;;;;;;14.63;59.96;98061.72;10293342;28;19909;-63
2022/04/29 16:45:46;;;;;;;;;;;;;;;14.77;59.54;98078.13;10292817;28;19953;-62
2022/04/29 16:50:45;;;;;;;;;;;;;;;14.82;59.55;98084.13;10292131;28;19979;-62
2022/04/29 16:55:46;;;;;;;;;;;;;;;14.77;59.73;98079.88;10292982;28;20350;-62
2022/04/29 17:00:44;;;;;;;;;;;;;;;14.80;60.20;98091.16;10291474;28;19952;-62
2022/04/29 17:05:43;;;;;;;;;;;;;;;14.88;60.42;98092.81;10292663;28;20378;-62
2022/04/29 17:10:42;;;;;;;;;;;;;;;14.92;60.70;98102.31;10292623;28;19913;-62
2022/04/29 17:15:41;;;;;;;;;;;;;;;14.90;60.98;98104.97;10292759;28;19952;-62
2022/04/29 17:20:40;;;;;;;;;;;;;;;14.86;61.90;98107.63;10291623;28;19961;-62
2022/04/29 17:25:39;;;;;;;;;;;;;;;14.71;61.64;98106.94;10077128;28;19917;-63
2022/04/29 17:34:28;;;;;;;35.25;23.52;;;;;;;14.57;62.18;98117.50;10532156;27;20658;-62
2022/04/29 17:44:45;;;;;;;34.30;23.77;;;;;;;14.44;64.58;98135.94;10448330;28;20349;-62
2022/04/29 17:55:03;;;;;;;35.85;24.58;;;;;;;13.94;66.22;98086.81;10421519;27;20076;-62
2022/04/29 18:00:04;;;;;;;40.60;25.02;;;;;;;14.10;66.14;98128.41;10447412;28;20468;-62
2022/04/29 18:05:03;;;;;;;34.30;22.85;;;;;;;13.91;66.37;98125.13;10446914;28;20892;-62
2022/04/29 18:10:03;;;;;;;35.03;22.30;;;;;;;14.01;66.82;98162.41;10447057;28;20094;-63
2022/04/29 18:15:03;;;;;;;36.20;23.00;;;;;;;13.64;67.26;98116.63;10446581;28;20129;-62
2022/04/29 18:20:04;;;;;;;33.80;22.52;;;;;;;13.82;67.90;98161.69;10447243;28;20510;-62
2022/04/29 18:25:03;;;;;;;29.75;20.75;;;;;;;13.71;68.43;98169.63;10447991;28;20486;-62
2022/04/29 18:30:03;;;;;;;30.85;18.05;;;;;;;13.62;68.68;98182.72;10446708;28;20076;-63
2022/04/29 18:35:02;;;;;;;27.92;18.08;;;;;;;13.17;69.10;98120.38;10446549;28;20485;-62
2022/04/29 18:40:01;;;;;;;;;;;;;;;13.43;69.33;98179.31;10447450;28;20066;-63
2022/04/29 18:45:00;;;;;;;23.60;16.05;;;;;;;12.91;69.29;98112.72;10423195;28;19912;-63
2022/04/29 18:49:59;;;;;;;27.52;16.63;;;;;;;13.02;69.41;98163.00;10418013;28;20025;-63
2022/04/29 18:54:59;;;;;;;;;;;;;;;13.16;70.16;98196.81;10419116;28;20114;-63
2022/04/29 18:59:57;;;;;;;24.67;14.10;;;;;;;13.04;70.44;98209.91;10419080;28;19948;-63
2022/04/29 19:04:56;;;;;;;25.05;14.48;;;;;;;12.87;71.15;98202.16;10417582;28;20035;-63
2022/04/29 19:09:55;;;;;;;22.52;15.07;;;;;;;12.76;71.36;98214.31;10418497;28;20052;-63
2022/04/29 19:14:54;;;;;;;22.80;14.77;;;;;;;12.38;71.45;98178.81;10417784;28;20103;-63
2022/04/29 19:19:53;;;;;;;22.85;13.82;;;;;;;12.56;71.72;98207.44;10416676;28;20032;-63
2022/04/29 19:24:52;;;;;;;23.17;15.60;;;;;;;12.12;72.00;98139.81;10418258;28;20056;-63
2022/04/29 19:29:51;;;;;;;23.60;15.23;;;;;;;12.42;72.36;98211.78;10415908;28;20123;-63
2022/04/29 19:34:50;;;;;;;25.30;16.63;;;;;;;12.36;72.57;98217.00;10416601;28;20043;-63
2022/04/29 19:39:49;;;;;;;27.05;17.40;;;;;;;12.39;72.89;98227.38;10417413;28;20024;-62
2022/04/29 19:44:48;;;;;;;27.88;16.95;;;;;;;11.99;72.67;98165.78;10416298;28;20055;-63
2022/04/29 19:49:49;;;;;;;28.80;17.58;;;;;;;12.21;72.95;98207.44;10416080;28;20063;-63
2022/04/29 19:54:48;;;;;;;26.15;16.45;;;;;;;11.94;73.58;98172.72;10415440;28;20068;-63
2022/04/29 19:59:53;;;;;;;29.05;17.60;;;;;;;12.29;73.78;98231.75;10416342;28;20032;-63
2022/04/29 20:04:52;;;;;;;27.77;16.95;;;;;;;12.22;74.13;98230.84;10415569;28;20060;-62
2022/04/29 20:09:51;;;;;;;29.35;17.20;;;;;;;12.18;74.34;98226.53;10415190;28;20032;-63
2022/04/29 20:14:50;;;;;;;29.60;18.70;;;;;;;12.10;74.62;98229.09;10415066;28;20128;-63
2022/04/29 20:19:50;;;;;;;29.60;16.73;;;;;;;11.99;75.97;98229.97;10414754;28;20028;-63
2022/04/29 20:24:50;;;;;;;31.27;18.23;;;;;;;11.73;75.50;98209.13;10415125;28;20325;-63
2022/04/29 20:29:49;;;;;;;31.40;17.88;;;;;;;11.63;75.64;98187.44;10414723;28;20072;-63
2022/04/29 20:34:48;;;;;;;30.60;18.58;;;;;;;11.83;76.06;98236.88;10414415;28;20040;-63
2022/04/29 20:45:05;;;;;;;31.23;17.77;;;;;;;11.65;76.45;98222.13;10413778;28;20506;-63
2022/04/29 20:50:05;;;;;;;30.63;17.73;;;;;;;11.30;76.18;98191.69;10414095;28;20056;-63
2022/04/29 20:55:04;;;;;;;30.52;17.52;;;;;;;11.31;76.87;98206.41;10414087;28;20067;-63
2022/04/29 21:00:04;;;;;;;27.83;16.55;;;;;;;11.27;76.87;98207.28;10413125;28;20505;-63
2022/04/29 21:05:04;;;;;;;27.85;16.83;;;;;;;11.30;77.50;98238.47;10413674;28;20055;-63
2022/04/29 21:10:03;;;;;;;;;;;;;;;11.24;77.39;98230.63;10414045;28;20067;-63
2022/04/29 21:15:02;;;;;;;25.90;15.63;;;;;;;11.03;77.47;98221.91;10414223;28;19966;-63
2022/04/29 21:20:01;;;;;;;28.20;15.48;;;;;;;11.07;78.27;98240.09;10413291;28;20070;-63
2022/04/29 21:25:00;;;;;;;31.02;18.00;;;;;;;10.88;79.58;98236.53;10413392;28;20064;-63
2022/04/29 21:35:17;;;;;;;28.60;16.77;;;;;;;10.61;80.19;98233.75;10413041;28;20064;-63
2022/04/29 21:40:19;;;;;;;23.30;14.80;;;;;;;10.39;82.34;98224.94;10413070;28;20024;-63
2022/04/29 21:45:18;;;;;;;25.67;15.80;;;;;;;10.61;82.08;98246.75;10412991;28;20167;-62
2022/04/29 21:50:17;;;;;;;26.13;14.68;;;;;;;10.43;81.61;98206.81;10412739;28;20231;-62
2022/04/29 21:55:16;;;;;;;23.67;14.45;;;;;;;10.30;81.39;98179.91;10413199;28;20067;-62
2022/04/29 22:00:20;;;;;;;24.10;14.63;;;;;;;10.49;81.64;98197.31;10413095;28;20033;-62
2022/04/29 22:05:19;;;;;;;24.73;14.93;;;;;;;10.70;82.21;98240.72;10412451;28;20075;-62
2022/04/29 22:10:18;;;;;;;27.95;15.48;;;;;;;10.72;81.43;98240.75;10411779;28;20036;-62
2022/04/29 22:15:17;;;;;;;25.77;14.70;;;;;;;10.72;81.94;98235.53;10412147;28;20024;-62
2022/04/29 22:20:16;;;;;;;23.08;14.30;;;;;;;10.73;80.94;98227.78;10414415;28;20076;-62
2022/04/29 22:25:16;;;;;;;26.52;14.77;;;;;;;10.49;81.52;98191.28;10416093;28;20071;-62
2022/04/29 22:30:14;;;;;;;;;;;;;;;10.57;81.54;98232.00;10414685;28;20153;-62
2022/04/29 22:35:15;;;;;;;28.13;15.52;;;;;;;10.32;81.79;98202.41;10418571;28;19912;-62
2022/04/29 22:40:14;;;;;;;26.65;15.85;;;;;;;10.04;82.95;98184.91;10417631;28;20076;-62
2022/04/29 22:45:19;;;;;;;28.92;16.00;;;;;;;9.90;83.56;98189.97;10418604;28;20060;-62
2022/04/29 22:50:19;;;;;;;25.80;14.90;;;;;;;9.41;83.87;98098.84;10418992;28;20075;-62
2022/04/29 22:55:22;;;;;;;27.92;15.88;;;;;;;10.08;83.62;98213.47;10418643;28;20512;-62
2022/04/29 23:00:21;;;;;;;28.92;16.77;;;;;;;9.93;84.30;98190.00;10418151;28;20481;-62
2022/04/29 23:05:20;;;;;;;;;;;;;;;9.98;85.14;98207.34;10418476;28;20095;-62
2022/04/29 23:10:19;;;;;;;32.38;17.45;;;;;;;9.98;85.32;98207.34;10418175;28;20377;-62
2022/04/29 23:15:20;;;;;;;32.85;19.05;;;;;;;9.94;84.43;98202.13;10417035;28;20068;-62
2022/04/29 23:20:19;;;;;;;34.50;18.02;;;;;;;9.94;84.67;98200.38;10416890;28;20079;-62
2022/04/29 23:25:18;;;;;;;34.38;18.05;;;;;;;9.88;84.91;98202.91;10417514;28;20052;-62
2022/04/29 23:30:17;;;;;;;33.70;17.08;;;;;;;9.81;85.08;98205.44;10417492;28;20080;-62
2022/04/29 23:35:16;;;;;;;26.80;15.90;;;;;;;9.73;85.17;98203.66;10417694;28;20484;-62
2022/04/29 23:40:16;;;;;;;28.88;16.10;;;;;;;9.58;85.09;98182.75;10417168;28;20036;-62
2022/04/29 23:45:15;;;;;;;28.50;15.52;;;;;;;9.60;85.82;98199.19;10416553;28;20052;-62
2022/04/29 23:50:13;;;;;;;32.45;16.33;;;;;;;9.45;86.25;98196.47;10416749;28;20108;-62
2022/04/29 23:55:13;;;;;;;30.80;15.70;;;;;;;9.14;86.39;98145.19;10416472;28;20043;-62
